KOCF/OCF METAR and TAF weather

Enter ICAO airport designator
Station Type Date Time Source
KOCF METAR 2019/10/15 20:51 UTC NOAA

KOCF 152051Z 09007KT 10SM CLR 31/20 A2996 RMK AO2 SLP147 T03060200 56022


Station Type Date Time Source
KOCF Decoded METAR 2019/10/15 20:51 UTC NOAA

Ocala, Ocala International Airport-Jim Taylor Field, FL, United States (KOCF) 29-10N 082-13W
Oct 15, 2019 - 04:51 PM EDT / 2019.10.15 2051 UTC
Wind: from the E (090 degrees) at 8 MPH (7 KT):0
Visibility: 10 mile(s):0
Sky conditions: clear
Temperature: 87.1 F (30.6 C)
Dew Point: 68.0 F (20.0 C)
Relative Humidity: 53%
Pressure (altimeter): 29.96 in. Hg (1014 hPa)
Pressure tendency: 0.06 inches (2.2 hPa) lower than three hours ago
ob: KOCF 152051Z 09007KT 10SM CLR 31/20 A2996 RMK AO2 SLP147 T03060200 56022
cycle: 21

Station Type Date Time Source
KOCF TAF UTC NOAA

Error!

Example: see airport list